map of AGT home
AGT - Airport
Location
City:  Ciudad del Este, Alto Paraná, Paraguay
Near (Alt.):Minga Guazú
Name:Guaraní International Airport
ICAO:SGES
IATA:AGT

Details
Type:Airport (Aerodrome, Airfield)
Use:Public/Civil, Military, International (customs port of entry)
Latitude:25°27'20"S (-25.455499)
Longitude:54°50'37"W (-54.843591)
Datum:WGS 1984
Elevation:846 ft (258 m)
Variation:16.25°W (WMM2015 magnetic declination)
-0.17° annual change
Runways:1
Longest:11154 × 148 ft (3400 × 45 m), paved

Time
Time Zone:UTC-4 (DST-3)
Local Time:

Weather
METAR:SGES 100200Z 17004KT CAVOK 24/14 Q1016

Related Locations
Nearby:
Farthest:SHI: 12387 mi / 19934 km
Shimojishima (Shimojijima, Miyakojima) [Shimojishima Airport], Shimoji Island, 47, JP

Find:

   beyond  
but within

Other Information
Maps:
NOTAMs:
Links:
Sources:

  
  • flag of Paraguay
  • flag of Alto Paraná
  

Airport Diagram

Airport diagram for AGT

Larger airport diagram (OBSOLETE) from NGA

Sectional Chart

Flight Planning
at skyvector.com

Satellite Image

Google Maps Satellite view

 

Copyright © 2004-2018 Karl L. Swartz. All rights reserved.
The Great Circle Mapper name and logo are trademarks of the Great Circle Mapper.
All other trademarks mentioned herein belong to their respective owners.
Please see credits for attibutions and further copyright information.

  Follow gcmap on Facebook Follow gcmap on Twitter Follow gcmap on Google+ GCmap on LinkedIn

hCard Microformat

Geo Microformat